Stations météo

Publicité
Apt, France (7657): Température de l'air & dewpoint: 14.09.2018 06:00:00 - 20.09.2018 06:00:00 (CEST)Apt, France (7657): Vitesse du vent & gusts: 14.09.2018 06:00:00 - 20.09.2018 06:00:00 (CEST)Apt, France (7657): Direction du vent: 14.09.2018 06:00:00 - 20.09.2018 06:00:00 (CEST)Apt, France (7657): Quantités de précipitations: 14.09.2018 06:00:00 - 20.09.2018 06:00:00 (CEST)
Date & Time tt [°C] td [°C] ff [km/h] ff [knt] fx [km/h] fx [knt] dd rr [mm]
20.09.2018 06:00:00 9,9 9,1 0 0 4 2 N 0,0
20.09.2018 05:00:00 10,6 10,0 4 2 5 3 WSW 0,0
20.09.2018 04:00:00 10,0 9,1 0 0 4 2 N 0,0
20.09.2018 03:00:00 10,6 9,4 0 0 5 3 N 0,0
20.09.2018 02:00:00 11,8 10,9 4 2 8 4 W -
20.09.2018 01:00:00 11,9 10,1 2 1 8 4 ENE 0,0
20.09.2018 00:00:00 12,3 10,7 2 1 8 4 E 0,0
19.09.2018 23:00:00 14,4 11,5 4 2 15 8 NNE 0,0
19.09.2018 22:00:00 16,2 11,8 4 2 15 8 NNW 0,0
19.09.2018 21:00:00 19,4 12,9 11 6 16 9 WNW 0,0
19.09.2018 20:00:00 20,4 13,4 8 4 22 12 WNW -
19.09.2018 19:00:00 23,0 14,0 9 5 29 16 WNW 0,0
19.09.2018 18:00:00 24,3 14,4 15 8 29 16 W 0,0
19.09.2018 17:00:00 25,3 15,0 15 8 29 16 W 0,0
19.09.2018 16:00:00 25,7 14,5 13 7 31 17 W 0,0
19.09.2018 15:00:00 25,1 15,4 15 8 28 15 WNW 0,0
19.09.2018 14:00:00 24,7 14,8 15 8 34 18 NW -
19.09.2018 13:00:00 24,2 15,1 16 9 - - W 0,0
19.09.2018 12:00:00 24,0 14,1 - - - - - 0,0
19.09.2018 11:00:00 23,3 14,6 5 3 16 9 NNW 0,0
19.09.2018 10:00:00 20,3 15,1 4 2 9 5 NNE 0,0
19.09.2018 09:00:00 15,2 14,7 0 0 8 4 N 0,0
19.09.2018 08:00:00 9,7 9,2 2 1 8 4 E -
19.09.2018 07:00:00 9,4 9,1 0 0 4 2 N 0,0
19.09.2018 06:00:00 9,5 9,0 0 0 8 4 N 0,0
19.09.2018 05:00:00 9,8 9,2 2 1 8 4 W 0,0
19.09.2018 04:00:00 12,0 11,7 4 2 5 3 W 0,0
19.09.2018 03:00:00 10,7 9,9 2 1 5 3 NE 0,2
19.09.2018 02:00:00 11,7 10,8 2 1 4 2 NNE -
19.09.2018 01:00:00 12,5 11,7 0 0 4 2 N 0,0
19.09.2018 00:00:00 12,8 11,9 0 0 4 2 N 0,0
18.09.2018 23:00:00 14,1 12,8 0 0 8 4 N 0,0
18.09.2018 22:00:00 15,9 14,4 4 2 13 7 NNW 0,0
18.09.2018 21:00:00 17,5 15,3 4 2 13 7 W 0,0
18.09.2018 20:00:00 18,5 14,8 4 2 15 8 WNW -
18.09.2018 19:00:00 20,8 14,2 5 3 22 12 SW 0,0
18.09.2018 18:00:00 22,9 13,4 13 7 24 13 SE 0,0
18.09.2018 17:00:00 23,4 12,1 9 5 24 13 S 0,0
18.09.2018 16:00:00 23,3 12,0 13 7 34 18 S 0,0
18.09.2018 15:00:00 24,9 13,8 13 7 31 17 SSW 0,0
18.09.2018 14:00:00 23,4 13,8 8 4 29 16 SSE -
18.09.2018 13:00:00 23,3 13,5 11 6 26 14 SE 0,0
18.09.2018 12:00:00 21,7 13,3 13 7 29 16 ESE 0,0
18.09.2018 11:00:00 20,7 14,1 15 8 28 15 SE 0,0
18.09.2018 10:00:00 18,9 14,6 11 6 21 11 SE 0,0
18.09.2018 09:00:00 14,0 13,4 0 0 5 3 N 0,0
18.09.2018 08:00:00 8,4 8,0 0 0 4 2 N -
18.09.2018 07:00:00 7,9 7,3 0 0 4 2 N 0,0
18.09.2018 06:00:00 8,5 7,9 0 0 8 4 N 0,0
18.09.2018 05:00:00 8,4 7,6 0 0 8 4 N 0,0
18.09.2018 04:00:00 9,6 8,8 4 2 8 4 WSW 0,0
18.09.2018 03:00:00 10,5 9,6 0 0 8 4 N 0,0
18.09.2018 02:00:00 11,6 10,8 0 0 9 5 N -
18.09.2018 01:00:00 13,0 12,1 2 1 8 4 SW 0,0
18.09.2018 00:00:00 15,4 14,1 4 2 15 8 SE 0,0
17.09.2018 23:00:00 16,1 14,6 5 3 9 5 SE 0,0
17.09.2018 22:00:00 16,3 14,7 4 2 9 5 ENE 0,0
17.09.2018 21:00:00 15,8 13,6 4 2 9 5 W 0,0
17.09.2018 20:00:00 17,4 13,3 4 2 13 7 W -
17.09.2018 19:00:00 21,3 12,4 8 4 13 7 SSE 0,0
17.09.2018 18:00:00 22,2 12,2 4 2 21 11 S 0,0
17.09.2018 17:00:00 23,9 12,2 11 6 29 16 S 0,0
17.09.2018 16:00:00 22,6 12,8 11 6 29 16 S 0,0
17.09.2018 15:00:00 22,8 12,7 13 7 29 16 SSE 0,0
17.09.2018 14:00:00 23,1 13,6 13 7 28 15 SSE -
17.09.2018 13:00:00 22,1 12,6 9 5 28 15 SSE 0,0
17.09.2018 12:00:00 21,5 13,7 11 6 26 14 SSE 0,0
17.09.2018 11:00:00 19,2 15,3 9 5 21 11 SE 0,0
17.09.2018 10:00:00 18,9 15,4 2 1 9 5 SSE 0,0
17.09.2018 09:00:00 14,5 12,7 0 0 4 2 N 0,0
17.09.2018 08:00:00 10,2 9,9 0 0 5 3 N -
17.09.2018 07:00:00 9,0 8,4 0 0 5 3 N 0,0
17.09.2018 06:00:00 9,3 8,5 0 0 8 4 N 0,0
17.09.2018 05:00:00 10,8 10,3 4 2 8 4 W 0,0
17.09.2018 04:00:00 10,9 10,1 2 1 8 4 NNW 0,0
17.09.2018 03:00:00 11,5 10,4 2 1 8 4 ENE 0,0
17.09.2018 02:00:00 12,5 11,6 0 0 9 5 N -
17.09.2018 01:00:00 12,9 12,0 2 1 5 3 S 0,0
17.09.2018 00:00:00 13,7 12,6 2 1 9 5 WSW 0,0
16.09.2018 23:00:00 15,3 13,8 2 1 9 5 WNW 0,0
16.09.2018 22:00:00 15,2 13,9 8 4 11 6 W 0,0
16.09.2018 21:00:00 17,2 14,3 4 2 8 4 NW 0,0
16.09.2018 20:00:00 18,7 14,6 5 3 24 13 W -
16.09.2018 19:00:00 19,9 15,3 11 6 24 13 WSW 0,0
16.09.2018 18:00:00 22,8 13,3 9 5 21 11 SSW 0,0
16.09.2018 17:00:00 21,7 12,5 9 5 26 14 S 0,0
16.09.2018 16:00:00 22,8 12,1 9 5 26 14 S 0,0
16.09.2018 15:00:00 24,4 13,0 9 5 29 16 S 0,0
16.09.2018 14:00:00 22,9 11,3 11 6 26 14 ESE -
16.09.2018 13:00:00 20,7 13,2 9 5 26 14 SE 0,0
16.09.2018 12:00:00 20,6 14,0 8 4 18 10 SE 0,0
16.09.2018 11:00:00 19,4 14,2 8 4 16 9 SSE 0,0
16.09.2018 10:00:00 18,5 14,0 4 2 9 5 SSW 0,0
16.09.2018 09:00:00 15,6 14,0 0 0 5 3 N 0,0
16.09.2018 08:00:00 11,0 10,4 0 0 4 2 N -
16.09.2018 07:00:00 10,6 10,1 2 1 8 4 SW 0,0
16.09.2018 06:00:00 9,1 8,2 0 0 4 2 N 0,0
16.09.2018 05:00:00 10,1 8,9 2 1 9 5 WSW 0,0
16.09.2018 04:00:00 10,9 10,0 4 2 9 5 SW 0,0
16.09.2018 03:00:00 10,6 9,2 2 1 9 5 ENE 0,0
16.09.2018 02:00:00 11,3 9,9 2 1 8 4 S -
16.09.2018 01:00:00 12,2 9,9 2 1 5 3 SSW 0,0
16.09.2018 00:00:00 13,3 10,3 2 1 8 4 SW 0,0
15.09.2018 23:00:00 14,2 10,4 2 1 9 5 SW 0,0
15.09.2018 22:00:00 15,4 11,2 5 3 9 5 W 0,0
15.09.2018 21:00:00 17,9 11,7 5 3 16 9 NNW 0,0
15.09.2018 20:00:00 19,2 11,7 11 6 24 13 WSW -
15.09.2018 19:00:00 22,5 14,3 5 3 13 7 SW 0,0
15.09.2018 18:00:00 24,2 13,4 8 4 24 13 SSW 0,0
15.09.2018 17:00:00 24,8 13,4 8 4 18 10 SW 0,0
15.09.2018 16:00:00 24,2 11,5 8 4 15 8 SSE 0,0
15.09.2018 15:00:00 24,1 11,8 9 5 18 10 SE 0,0
15.09.2018 14:00:00 24,5 12,1 8 4 18 10 SE -
15.09.2018 13:00:00 24,3 13,2 5 3 24 13 E 0,0
15.09.2018 12:00:00 22,8 12,7 9 5 21 11 E 0,0
15.09.2018 11:00:00 22,7 12,6 4 2 11 6 SSW 0,0
15.09.2018 10:00:00 20,6 12,3 2 1 11 6 NNW 0,0
15.09.2018 09:00:00 16,3 12,3 4 2 9 5 N 0,0
15.09.2018 08:00:00 10,9 8,6 0 0 5 3 N -
15.09.2018 07:00:00 10,9 7,9 4 2 18 10 NW 0,0
15.09.2018 06:00:00 13,5 10,5 15 8 22 12 W 0,0
15.09.2018 05:00:00 14,1 10,7 15 8 22 12 WNW 0,0
15.09.2018 04:00:00 14,3 10,7 13 7 22 12 WNW 0,0
15.09.2018 03:00:00 14,5 10,9 15 8 21 11 W 0,0
15.09.2018 02:00:00 14,6 10,8 13 7 21 11 WNW -
15.09.2018 01:00:00 15,6 11,0 13 7 22 12 WNW 0,0
15.09.2018 00:00:00 15,8 11,2 13 7 22 12 WNW 0,0
14.09.2018 23:00:00 16,2 11,4 11 6 26 14 WNW 0,0
14.09.2018 22:00:00 16,7 11,2 11 6 22 12 NW 0,0
14.09.2018 21:00:00 17,0 11,3 11 6 22 12 NW 0,0
14.09.2018 20:00:00 18,9 11,5 13 7 24 13 NW -
14.09.2018 19:00:00 22,1 11,5 13 7 35 19 NW 0,0
14.09.2018 18:00:00 23,1 11,5 18 10 37 20 W 0,0
14.09.2018 17:00:00 23,6 12,9 21 11 41 22 W 0,0
14.09.2018 16:00:00 24,3 12,9 18 10 34 18 W 0,0
14.09.2018 15:00:00 23,9 13,7 16 9 39 21 WSW 0,0
14.09.2018 14:00:00 24,2 14,0 18 10 31 17 W -
14.09.2018 13:00:00 23,9 13,7 9 5 24 13 W 0,0
14.09.2018 12:00:00 24,1 12,4 9 5 21 11 NNW 0,0
14.09.2018 11:00:00 23,2 12,5 9 5 22 12 NNW 0,0
14.09.2018 10:00:00 21,1 13,3 13 7 24 13 NNW 0,0
14.09.2018 09:00:00 19,4 13,3 13 7 21 11 NNW 0,0
14.09.2018 08:00:00 16,3 13,0 11 6 18 10 WNW -
14.09.2018 07:00:00 14,2 11,7 9 5 18 10 WNW 0,0
14.09.2018 06:00:00 15,1 12,0 11 6 18 10 WNW 0,0

tt = Température de l'air
td = dewpoint
ff = Vitesse du vent
fx = gusts
dd = Direction du vent
rr = Quantités de précipitations

stations d'obs. à proximité